Main page
METAR-TAF:

METAR-TAF

Airports :

Castres, France

Castres–Mazamet Airport

latitude: 43-33-25N, longitude: 2-17-21E, elevation: 239 m

Current weather observation

The report was made 29 minutes ago, at 07:00 UTC
Wind 18 kt from the East/Southeast
Temperature 13°C
Humidity 51%
Pressure 1015 hPa
Visibility 10 km or more
no clouds below 1500 m and no cumulonimbus

METAR: LFCK 220700Z AUTO 11018KT CAVOK 13/03 Q1015 TEMPO 14020G35KT

Time: 08:29 (07:29 UTC)

Forecast

The report was made 2 hours and 29 minutes ago, at 05:00 UTC
Forecast valid from 22 at 06 UTC to 22 at 15 UTC
Wind 2 kt from variable directions
Visibility 10 km or more
no clouds below 1500 m and no cumulonimbus
Becoming
from 22 at 06 UTC to 22 at 08 UTC
Wind 18 kt from the Southeast
Temporary
from 22 at 08 UTC to 22 at 15 UTC
Wind 20 kt from the Southeast with gusts up to 35 kt

TAF: LFCK 220500Z 2206/2215 VRB02KT CAVOK BECMG 2206/2208 14018KT TEMPO 2208/2215 14020G35KT

Weather observations and forecasts of more than 4000 airports (METAR and TAF reports).

The available stations are represented by yellow and red dots on the map.

Hover mouse over dot to see the name of the station.

Then click to see weather observations and forecasts.

To change the map : click on the green buttons with a black cross to zoom in, on the green button with a dash to zoom out, or on the green arrows for adjacent maps.


METAR-TAF: